Byron Hills, Illinois
Current Conditions -  °F | °C
As of 9:52 PM on Wednesday 22 Oct 2014 (Local Time) from KDVN Reporting Station
Clear Clear  
Wind Chill: 40°   Ceiling: Unl
Heat Index: 44°   Visibility: 10mi
Dew Point: 35°   Wind: 8mph
Humidity: 71%   Direction: 140°SE
Pressure: 30.23"   Gusts: NA
Location:  41.595°N, 90.2974°W
Report Text: KDVN 230252Z AUTO 14007KT 10SM CLR 07/02 A3023 RMK AO2 SLP241 T00670017 50005 TSNO
Loading
Personal Weather Stations






























Interactive Weather Map
Tropical Storm Tracking
New forecast layout! Learn more

10-Day Weather Forecast

Advertisements
Track Severe Weather on mobile